Zion National Park, UT

9:18 PM MDT on August 03, 2015 (GMT -0600)
Apple Valley Ranch | | Change Station
CLOSE
Current Station
Personal Weather Station
Location: Apple Valley, UT
Elevation: 4738 ft
Nearby Weather Stations

Elev 4738 ft 37.11 °N, 113.13 °W | Updated 9 minutes ago

Clear
Clear
84.7 °F
Feels Like 82 °F
N
8.9
Wind Variable Wind from SW

Today
High -- | Low -- °F
--% Chance of Precip.
Yesterday
High -- | Low -- °F
Precip. -- in
6:38 AM 8:37 PM
Waning Gibbous, 81% visible
Pressure 30.06 in
Visibility 10.0 miles
Clouds Clear
Heat Index 82 °F
Dew Point 40 °F
Humidity 21%
Rainfall 0.00 in
Snow Depth Not available.
UV 0 out of 12
Pollen 5.40 out of 12
Air Quality Not available.
Flu Activity Not available.
METAR KAZC 040315Z AUTO 25006KT 10SM CLR 29/04 A3006 RMK AO2 T02900035

More Conditions Fewer Conditions

Pressure 30.06 in
Visibility 10.0 miles
Clouds Clear
Heat Index 82 °F
Dew Point 40 °F
Humidity 21%
Rainfall 0.00 in
Snow Depth Not available.
UV 0 out of 12
Pollen 5.40 out of 12
Air Quality Not available.
Flu Activity Not available.
METAR KAZC 040315Z AUTO 25006KT 10SM CLR 29/04 A3006 RMK AO2 T02900035

More Conditions Fewer Conditions

10-Day Weather Forecast

×

Almanac

Astronomy

Aug. 03, 2015 Rise Set
Actual Time
Civil Twilight
Nautical Twilight
Astronomical Twilight
Moon
Length of Visible Light
Length of Day
Tomorrow will be .
, % of the Moon is Illuminated

Today's Extremes

State Highs State Lows

Community

WunderPhotos

Upload Photos

1,843,842 photos uploaded!

WunderBlogs® & News

Nearby

Air Quality

  Air Quality AQ Index Pollutant
Not available.

Snow Depth

Station Depth Elevation

Earthquake Activity

City Distance Mag. Time & Date
Minimum magnitude displayed is 2.5.

Coastal Water Temperatures

Place Temperature

Stations

Nearby Weather Stations

Station Location Temp. Windchill Dew Point Humidity Wind Precip. Elev Updated Type